createdAt,value
2023-10-14T00:00:43.631Z,66.03
2023-10-14T00:01:49.785Z,66.17
2023-10-14T00:02:55.869Z,66.1
2023-10-14T00:05:08.171Z,66.67
2023-10-14T00:06:14.252Z,66.4
2023-10-14T00:07:20.441Z,66.24
2023-10-14T00:08:26.612Z,65.92
2023-10-14T00:11:45.042Z,66.1
2023-10-14T00:13:02.508Z,65.98
2023-10-14T00:14:20.025Z,65.81
2023-10-14T00:15:48.723Z,65.7
2023-10-14T00:16:54.814Z,65.98
2023-10-14T00:18:12.268Z,66.05
2023-10-14T00:19:29.724Z,65.69
2023-10-14T00:21:53.324Z,65.71
2023-10-14T00:24:05.562Z,65.85
2023-10-14T00:25:11.796Z,65.75
2023-10-14T00:26:17.888Z,65.39
2023-10-14T00:27:24.021Z,65.35
2023-10-14T00:28:30.170Z,65.25
2023-10-14T00:29:36.294Z,65.42
2023-10-14T00:30:42.432Z,65.08
2023-10-14T00:31:48.659Z,64.84
2023-10-14T00:33:06.009Z,65.07
2023-10-14T00:34:23.468Z,65.39
2023-10-14T00:35:52.271Z,65.4
2023-10-14T00:37:09.921Z,64.84
2023-10-14T00:38:27.109Z,65.05
2023-10-14T00:39:44.566Z,64.9
2023-10-14T00:41:02.007Z,64.66
2023-10-14T00:44:20.389Z,64.94
2023-10-14T00:45:26.528Z,65.18
2023-10-14T00:46:32.798Z,65.19
2023-10-14T00:47:38.856Z,65.48
2023-10-14T00:48:45.039Z,64.92
2023-10-14T00:49:51.143Z,65.24
2023-10-14T00:52:03.509Z,65.51
2023-10-14T00:53:09.564Z,66.05
2023-10-14T00:54:26.984Z,65.73
2023-10-14T00:55:44.448Z,65.78
2023-10-14T00:57:01.861Z,65.64
2023-10-14T00:58:19.328Z,65.73
2023-10-14T00:59:36.819Z,65.79
2023-10-14T01:01:05.541Z,65.42
2023-10-14T01:02:22.948Z,65.97
2023-10-14T01:03:51.707Z,66.2
2023-10-14T01:05:09.142Z,65.8
2023-10-14T01:06:37.954Z,66.04
2023-10-14T01:08:06.630Z,66.16
2023-10-14T01:09:35.534Z,65.95
2023-10-14T01:11:15.360Z,65.83
2023-10-14T01:12:21.594Z,65.71
2023-10-14T01:13:50.315Z,65.55
2023-10-14T01:14:56.485Z,65.68
2023-10-14T01:17:32.005Z,65.89
2023-10-14T01:18:48.839Z,65.7
2023-10-14T01:20:06.247Z,65.88
2023-10-14T01:21:46.331Z,66.02
2023-10-14T01:23:03.753Z,65.74
2023-10-14T01:24:32.532Z,65.84
2023-10-14T01:25:49.852Z,66.06
2023-10-14T01:27:07.383Z,66.32
2023-10-14T01:28:24.827Z,66.24
2023-10-14T01:29:42.285Z,66.17
2023-10-14T01:30:59.792Z,66.32
2023-10-14T01:32:17.197Z,66.28
2023-10-14T01:36:53.067Z,66.45
2023-10-14T01:37:59.231Z,66.33
2023-10-14T01:40:11.548Z,66.39
2023-10-14T01:41:17.609Z,66.59
2023-10-14T01:43:29.891Z,66.56
2023-10-14T01:44:35.983Z,66.71
2023-10-14T01:45:42.340Z,66.6
2023-10-14T01:46:48.437Z,66.51
2023-10-14T01:47:54.485Z,66.81
2023-10-14T01:49:00.696Z,66.74
2023-10-14T01:50:06.823Z,66.54
2023-10-14T01:51:24.205Z,66.58
2023-10-14T01:52:41.666Z,66.62
2023-10-14T01:53:59.361Z,66.71
2023-10-14T01:55:16.609Z,66.66
2023-10-14T01:56:34.006Z,66.72
2023-10-14T01:57:51.453Z,66.32
2023-10-14T01:58:57.572Z,66.41
2023-10-14T02:00:03.720Z,66.29
2023-10-14T02:01:09.924Z,66.22
2023-10-14T02:03:22.357Z,66.45
2023-10-14T02:04:28.694Z,66.45
2023-10-14T02:05:34.667Z,66.28
2023-10-14T02:06:40.621Z,66.37
2023-10-14T02:07:46.741Z,66.32
2023-10-14T02:08:52.980Z,66.26
2023-10-14T02:09:59.111Z,66.36
2023-10-14T02:11:05.160Z,66.22
2023-10-14T02:12:11.319Z,66.36
2023-10-14T02:14:23.602Z,66.38
2023-10-14T02:15:52.418Z,66.21
2023-10-14T02:18:15.929Z,66.25
2023-10-14T02:19:33.409Z,66.42
2023-10-14T02:21:02.153Z,66.39
2023-10-14T02:22:08.318Z,66.18
2023-10-14T02:23:25.742Z,66.03
2023-10-14T02:25:05.780Z,66.28
2023-10-14T02:26:23.235Z,66.07
2023-10-14T02:27:52.009Z,66.2
2023-10-14T02:29:20.776Z,66.06
2023-10-14T02:30:49.525Z,66.15
2023-10-14T02:32:06.970Z,65.93
2023-10-14T02:33:24.336Z,65.95
2023-10-14T02:34:53.142Z,65.78
2023-10-14T02:37:16.756Z,65.88
2023-10-14T02:38:34.206Z,65.89
2023-10-14T02:39:51.958Z,65.91
2023-10-14T02:41:09.060Z,66.08
2023-10-14T02:43:43.979Z,65.58
2023-10-14T02:45:01.332Z,65.75
2023-10-14T02:46:19.034Z,65.73
2023-10-14T02:47:36.351Z,65.57
2023-10-14T02:48:53.826Z,65.82
2023-10-14T02:50:11.220Z,65.58
2023-10-14T02:51:28.666Z,65.65
2023-10-14T02:52:57.450Z,65.64
2023-10-14T02:54:03.624Z,65.4
2023-10-14T02:55:21.150Z,65.25
2023-10-14T02:56:49.781Z,65.2
2023-10-14T02:58:07.243Z,65.05
2023-10-14T02:59:13.364Z,64.89
2023-10-14T03:00:42.187Z,65.25
2023-10-14T03:02:10.891Z,65.1
2023-10-14T03:03:17.171Z,64.91
2023-10-14T03:04:34.440Z,64.89
2023-10-14T03:06:03.209Z,64.92
2023-10-14T03:07:20.665Z,64.83
2023-10-14T03:08:26.805Z,64.75
2023-10-14T03:25:32.292Z,65.04
2023-10-14T03:26:59.037Z,64.87
2023-10-14T03:28:25.923Z,65.22
2023-10-14T03:30:13.246Z,64.97
2023-10-14T03:31:19.655Z,64.92
2023-10-14T03:32:46.318Z,65.05
2023-10-14T03:34:13.135Z,65.08
2023-10-14T03:35:39.970Z,64.96
2023-10-14T03:37:06.767Z,64.95
2023-10-14T03:38:33.533Z,65.03
2023-10-14T03:40:00.425Z,64.93
2023-10-14T03:42:12.778Z,64.85
2023-10-14T03:43:19.071Z,64.96
2023-10-14T03:44:25.198Z,65.03
2023-10-14T03:45:31.495Z,65.07
2023-10-14T03:46:37.769Z,65
2023-10-14T03:48:50.258Z,64.97
2023-10-14T03:49:56.477Z,64.9
2023-10-14T03:51:02.709Z,64.91
2023-10-14T03:52:08.960Z,65.05
2023-10-14T03:53:35.653Z,64.94
2023-10-14T03:55:02.577Z,64.56
2023-10-14T03:56:29.360Z,64.56
2023-10-14T03:57:56.151Z,64.31
2023-10-14T03:59:23.672Z,64.53
2023-10-14T04:02:16.591Z,64.2
2023-10-14T04:03:43.436Z,64.09
2023-10-14T04:05:10.212Z,64.28
2023-10-14T04:06:37.019Z,64.36
2023-10-14T04:08:03.854Z,64.49
2023-10-14T04:09:30.670Z,64.61
2023-10-14T04:10:57.449Z,64.99
2023-10-14T04:12:24.244Z,65.18
2023-10-14T04:13:51.037Z,65.13
2023-10-14T04:15:17.871Z,65.21
2023-10-14T04:18:11.508Z,65.36
2023-10-14T04:19:38.328Z,65.12
2023-10-14T04:21:25.677Z,65.24
2023-10-14T04:23:13.037Z,65.03
2023-10-14T04:25:21.211Z,64.96
2023-10-14T04:26:47.761Z,64.96
2023-10-14T04:29:16.297Z,64.72
2023-10-14T04:30:22.528Z,64.91
2023-10-14T04:32:09.929Z,64.87
2023-10-14T04:33:36.684Z,65.12
2023-10-14T04:35:03.495Z,64.93
2023-10-14T04:36:30.286Z,65.06
2023-10-14T04:37:57.091Z,64.89
2023-10-14T04:39:44.509Z,65.06
2023-10-14T04:41:11.331Z,64.96
2023-10-14T04:42:17.561Z,65.17
2023-10-14T04:45:11.079Z,64.91
2023-10-14T04:46:38.107Z,65.15
2023-10-14T04:48:04.875Z,65.24
2023-10-14T04:49:31.599Z,66.1
2023-10-14T04:50:58.430Z,66.65
2023-10-14T04:52:25.302Z,67.64
2023-10-14T04:53:52.016Z,68.41
2023-10-14T04:55:18.868Z,69.03
2023-10-14T04:56:45.637Z,69.78
2023-10-14T04:58:12.699Z,69.58
2023-10-14T04:59:39.292Z,70.22
2023-10-14T05:01:06.159Z,70.23
2023-10-14T05:02:32.901Z,70.34
2023-10-14T05:03:59.788Z,69.71
2023-10-14T05:05:26.529Z,70.75
2023-10-14T05:06:53.320Z,70.39
2023-10-14T05:08:20.071Z,69.74
2023-10-14T05:09:46.951Z,69.81
2023-10-14T05:10:53.081Z,70.43
2023-10-14T05:11:59.460Z,71.19
2023-10-14T05:13:05.703Z,71.76
2023-10-14T05:14:11.841Z,71.71
2023-10-14T05:15:18.095Z,71.15
2023-10-14T05:17:30.652Z,71.04
2023-10-14T05:18:36.878Z,70.72
2023-10-14T05:19:43.178Z,71.18
2023-10-14T05:20:49.291Z,71.6
2023-10-14T05:21:55.581Z,71.67
2023-10-14T05:23:01.701Z,70.64
2023-10-14T05:24:08.004Z,71.48
2023-10-14T05:25:14.268Z,72.12
2023-10-14T05:26:20.483Z,72.29
2023-10-14T05:27:26.731Z,71.89
2023-10-14T05:28:32.940Z,71.94
2023-10-14T05:29:39.213Z,71.98
2023-10-14T05:30:45.478Z,71.31
2023-10-14T05:31:51.837Z,70.8
2023-10-14T05:32:57.963Z,71.13
2023-10-14T05:34:04.187Z,72.6
2023-10-14T05:35:10.406Z,73.22
2023-10-14T05:36:16.645Z,72.99
2023-10-14T05:38:29.086Z,72.68
2023-10-14T05:39:35.328Z,73.24
2023-10-14T05:40:41.587Z,72.54
2023-10-14T05:41:47.815Z,70.79
2023-10-14T05:42:54.071Z,70.78
2023-10-14T05:44:00.294Z,70.91
2023-10-14T05:45:06.530Z,69.97
2023-10-14T05:46:12.850Z,70.43
2023-10-14T05:47:19.003Z,70.09
2023-10-14T05:48:25.238Z,70.45
2023-10-14T05:49:31.582Z,69.99
2023-10-14T05:50:37.731Z,69.91
2023-10-14T05:51:43.988Z,69.92
2023-10-14T05:52:50.180Z,69.91
2023-10-14T05:53:56.449Z,68.97
2023-10-14T05:55:02.746Z,69.12
2023-10-14T05:56:08.891Z,71.19
2023-10-14T05:57:15.141Z,69.89
2023-10-14T05:58:21.480Z,69.68
2023-10-14T05:59:27.652Z,70.59
2023-10-14T06:01:40.108Z,70.83
2023-10-14T06:02:46.365Z,69.95
2023-10-14T06:03:52.837Z,71.44
2023-10-14T06:04:58.921Z,70.07
2023-10-14T06:06:06.355Z,68.46
2023-10-14T06:07:11.335Z,70.5
2023-10-14T06:08:17.580Z,69.22
2023-10-14T06:09:24.052Z,69.86
2023-10-14T06:10:30.060Z,68.73
2023-10-14T06:11:36.261Z,70.46
2023-10-14T06:12:42.471Z,69.47
2023-10-14T06:13:48.654Z,69.1
2023-10-14T06:14:54.956Z,68.83
2023-10-14T06:16:01.265Z,69.55
2023-10-14T06:17:07.473Z,68.12
2023-10-14T06:18:13.735Z,69.42
2023-10-14T06:19:19.952Z,69.09
2023-10-14T06:20:26.167Z,69.83
2023-10-14T06:21:32.366Z,69.38
2023-10-14T06:22:38.614Z,70.15
2023-10-14T06:23:44.859Z,69.23
2023-10-14T06:24:51.129Z,69.86
2023-10-14T06:25:57.325Z,69.04
2023-10-14T06:27:03.576Z,68.88
2023-10-14T06:28:09.851Z,68.44
2023-10-14T06:29:16.050Z,69.04
2023-10-14T06:31:28.618Z,67.82
2023-10-14T06:32:35.112Z,70.13
2023-10-14T06:33:40.948Z,69.36
2023-10-14T06:34:47.151Z,68.89
2023-10-14T06:35:53.492Z,69.05
2023-10-14T06:36:59.748Z,68.81
2023-10-14T06:38:05.997Z,68.37
2023-10-14T06:39:12.198Z,68.31
2023-10-14T06:40:18.454Z,68.3
2023-10-14T06:41:24.665Z,68.24
2023-10-14T06:42:30.975Z,68.26
2023-10-14T06:43:37.153Z,68.54
2023-10-14T06:44:43.291Z,68.34
2023-10-14T06:45:49.707Z,68.5
2023-10-14T06:46:55.924Z,68.65
2023-10-14T06:48:02.127Z,68.58
2023-10-14T06:49:08.384Z,68.48
2023-10-14T06:50:14.567Z,68.62
2023-10-14T06:51:20.811Z,68.46
2023-10-14T06:52:27.099Z,68.55
2023-10-14T06:53:33.326Z,68.47
2023-10-14T06:54:39.464Z,68.32
2023-10-14T06:55:45.816Z,68.32
2023-10-14T06:56:51.998Z,68.31
2023-10-14T06:57:58.293Z,68.22
2023-10-14T06:59:04.498Z,68.27
2023-10-14T07:00:10.721Z,68.38
2023-10-14T07:02:23.188Z,68.37
2023-10-14T07:03:29.472Z,68.68
2023-10-14T07:04:35.717Z,68.54
2023-10-14T07:05:41.917Z,68.36
2023-10-14T07:06:48.171Z,68.49
2023-10-14T07:07:54.378Z,68.34
2023-10-14T07:09:00.646Z,68.52
2023-10-14T07:10:06.885Z,68.46
2023-10-14T07:11:13.100Z,69.13
2023-10-14T07:12:19.329Z,68.83
2023-10-14T07:13:25.629Z,68.87
2023-10-14T07:14:31.817Z,68.91
2023-10-14T07:15:38.046Z,68.76
2023-10-14T07:16:44.457Z,68.83
2023-10-14T07:17:50.564Z,68.61
2023-10-14T07:18:56.769Z,68.58
2023-10-14T07:20:03.047Z,68.41
2023-10-14T07:21:09.241Z,68.23
2023-10-14T07:22:15.522Z,68.52
2023-10-14T07:23:21.701Z,68.28
2023-10-14T07:24:28.026Z,68.37
2023-10-14T07:25:34.112Z,68.26
2023-10-14T07:26:40.358Z,68.51
2023-10-14T07:27:48.707Z,68.46
2023-10-14T07:28:53.108Z,68.55
2023-10-14T07:29:59.148Z,68.53
2023-10-14T07:31:05.481Z,68.49
2023-10-14T07:32:11.648Z,68.2
2023-10-14T07:33:18.005Z,68.3
2023-10-14T07:35:30.273Z,68.83
2023-10-14T07:37:42.804Z,68.51
2023-10-14T07:39:55.313Z,69.1
2023-10-14T07:41:01.508Z,69.01
2023-10-14T07:42:07.828Z,68.7
2023-10-14T07:46:53.310Z,69.45
2023-10-14T07:48:20.053Z,68.81
2023-10-14T07:49:46.780Z,68.47
2023-10-14T07:51:28.868Z,68.15
2023-10-14T07:55:34.057Z,67.94
2023-10-14T07:58:27.772Z,67.76
2023-10-14T08:05:25.685Z,67.14
2023-10-14T08:06:31.852Z,68.23
2023-10-14T08:07:38.174Z,68.17
2023-10-14T08:08:44.429Z,68.86
2023-10-14T08:09:50.667Z,69.45
2023-10-14T08:10:56.791Z,68.21
2023-10-14T08:12:03.051Z,67.35
2023-10-14T08:13:09.821Z,66.51
2023-10-14T08:14:15.591Z,67.76
2023-10-14T08:15:21.845Z,66.78
2023-10-14T08:16:28.124Z,66.79
2023-10-14T08:17:54.913Z,68.28
2023-10-14T08:20:07.307Z,66.45
2023-10-14T08:21:13.614Z,66.8
2023-10-14T08:22:21.386Z,66.22
2023-10-14T08:23:26.007Z,64.86
2023-10-14T08:24:32.508Z,66.45
2023-10-14T08:25:38.499Z,66.16
2023-10-14T08:26:44.732Z,66.04
2023-10-14T08:27:50.987Z,65.55
2023-10-14T08:28:57.134Z,65.15
2023-10-14T08:35:34.648Z,64.57
2023-10-14T08:36:40.874Z,64.19
2023-10-14T08:37:47.168Z,64.11
2023-10-14T08:38:53.405Z,63.88
2023-10-14T08:45:30.777Z,63.48
2023-10-14T08:49:55.749Z,62.51
2023-10-14T08:51:01.961Z,61.52
2023-10-14T08:53:14.440Z,61.81
2023-10-14T08:54:20.685Z,62.32
2023-10-14T08:55:26.952Z,61.5
2023-10-14T08:56:33.169Z,62.62
2023-10-14T08:58:45.554Z,61.85
2023-10-14T09:00:58.172Z,61.86
2023-10-14T09:02:24.924Z,61.75
2023-10-14T09:05:39.066Z,61.05
2023-10-14T09:06:45.263Z,61.1
2023-10-14T09:11:05.767Z,60.97
2023-10-14T09:14:19.959Z,60.33
2023-10-14T09:20:11.665Z,58.54
2023-10-14T09:21:17.915Z,59
2023-10-14T09:22:24.299Z,59.62
2023-10-14T09:23:30.405Z,58.86
2023-10-14T09:24:36.538Z,59.65
2023-10-14T09:25:42.777Z,59.12
2023-10-14T09:26:49.109Z,59.07
2023-10-14T09:27:55.359Z,59.38
2023-10-14T09:29:01.589Z,59.76
2023-10-14T09:31:14.177Z,58.85
2023-10-14T09:40:05.200Z,57.26
2023-10-14T09:41:10.192Z,55.68
2023-10-14T09:42:16.413Z,56.11
2023-10-14T09:43:22.684Z,55.63
2023-10-14T09:45:35.163Z,54.71
2023-10-14T09:47:48.039Z,55.61
2023-10-14T09:48:53.797Z,55.11
2023-10-14T09:53:59.903Z,54.74
2023-10-14T10:04:07.673Z,55.38
2023-10-14T10:09:13.577Z,53.99
2023-10-14T10:10:19.993Z,54.33
2023-10-14T10:11:26.146Z,53.75
2023-10-14T10:12:32.334Z,53.33
2023-10-14T10:13:38.629Z,53.5
2023-10-14T10:19:09.844Z,53.95
2023-10-14T10:20:16.026Z,54.84
2023-10-14T10:21:22.304Z,54.07
2023-10-14T10:27:34.826Z,53.02
2023-10-14T10:28:40.799Z,53.33
2023-10-14T10:31:55.107Z,54.22
2023-10-14T10:38:48.475Z,53.11
2023-10-14T10:43:08.932Z,53.06
2023-10-14T10:50:22.971Z,51.35
2023-10-14T10:54:43.382Z,51.57
2023-10-14T11:00:35.145Z,50.48
2023-10-14T11:01:41.419Z,50.94
2023-10-14T11:08:18.805Z,52.47
2023-10-14T11:09:25.415Z,53
2023-10-14T11:10:31.296Z,52.04
2023-10-14T11:11:37.522Z,51.01
2023-10-14T11:13:50.188Z,51.43
2023-10-14T11:14:56.155Z,51.17
2023-10-14T11:17:08.770Z,52.09
2023-10-14T11:18:27.286Z,52.3
2023-10-14T11:19:21.317Z,51.07
2023-10-14T11:22:39.893Z,50.74
2023-10-14T11:23:46.127Z,53.01
2023-10-14T11:24:52.376Z,52.81
2023-10-14T11:25:58.537Z,52.44
2023-10-14T11:27:04.853Z,51.83
2023-10-14T11:28:11.190Z,52.84
2023-10-14T11:29:17.311Z,51.66
2023-10-14T11:30:23.557Z,52.15
2023-10-14T11:32:36.087Z,51.01
2023-10-14T11:35:29.615Z,51.92
2023-10-14T11:38:23.252Z,53.18
2023-10-14T11:41:16.922Z,53.45
2023-10-14T11:47:04.222Z,53.75
2023-10-14T11:49:57.730Z,50.4
2023-10-14T11:51:24.597Z,53.28
2023-10-14T11:55:44.986Z,53.22
2023-10-14T11:57:11.807Z,50.47
2023-10-14T11:58:38.756Z,52.84
2023-10-14T12:01:52.828Z,53.32
2023-10-14T12:08:50.750Z,52.51
2023-10-14T12:09:57.019Z,52.03
2023-10-14T12:11:03.255Z,50.72
2023-10-14T12:13:48.389Z,52.11
2023-10-14T12:14:42.491Z,52.62
2023-10-14T12:16:55.100Z,52.1
2023-10-14T12:18:01.233Z,50.94
2023-10-14T12:19:07.468Z,51.62
2023-10-14T12:21:19.909Z,50.64
2023-10-14T12:22:26.221Z,51.32
2023-10-14T12:23:32.384Z,48.96
2023-10-14T12:25:44.888Z,49.54
2023-10-14T12:27:57.345Z,51.06
2023-10-14T12:29:03.574Z,48.56
2023-10-14T12:32:07.569Z,49.67
2023-10-14T12:34:50.782Z,48.78
2023-10-14T12:50:09.082Z,48.88
2023-10-14T12:51:15.299Z,49.77
2023-10-14T12:52:21.575Z,50.28
2023-10-14T12:54:34.009Z,48.22
2023-10-14T13:01:11.615Z,48.82
2023-10-14T13:02:38.247Z,50.25
2023-10-14T13:06:58.689Z,49.71
2023-10-14T13:09:52.250Z,48.43
2023-10-14T13:12:45.917Z,49.5
2023-10-14T13:14:12.736Z,50.81
2023-10-14T13:15:39.460Z,50.93
2023-10-14T13:17:51.948Z,49.52
2023-10-14T13:27:48.094Z,49.35
2023-10-14T13:32:08.471Z,49.67
2023-10-14T13:36:28.956Z,50.02
2023-10-14T13:39:22.732Z,48.16
2023-10-14T13:44:03.527Z,50.49
2023-10-14T13:46:36.620Z,50.51
2023-10-14T13:47:44.577Z,50.54
2023-10-14T13:48:48.991Z,50.58
2023-10-14T13:49:55.290Z,50.9
2023-10-14T13:51:01.471Z,50.61
2023-10-14T13:53:13.886Z,49.66
2023-10-14T13:54:20.202Z,51.07
2023-10-14T13:56:32.662Z,50.78
2023-10-14T13:57:38.889Z,51.11
2023-10-14T13:59:51.379Z,51.56
2023-10-14T14:04:11.853Z,51.27
2023-10-14T14:05:38.677Z,51.31
2023-10-14T14:09:59.077Z,51.02
2023-10-14T14:11:25.893Z,51.33
2023-10-14T14:12:52.642Z,51.62
2023-10-14T14:14:19.407Z,51.68
2023-10-14T14:15:25.594Z,51.06
2023-10-14T14:16:31.879Z,52.17
2023-10-14T14:17:38.144Z,51.58
2023-10-14T14:18:44.370Z,51.39
2023-10-14T14:19:50.640Z,51.04
2023-10-14T14:20:56.852Z,51.35
2023-10-14T14:22:03.106Z,51.25
2023-10-14T14:23:09.335Z,51.37
2023-10-14T14:24:15.590Z,51.19
2023-10-14T14:25:21.835Z,51.16
2023-10-14T14:26:27.954Z,51.27
2023-10-14T14:27:34.283Z,51.92
2023-10-14T14:28:40.616Z,51.54
2023-10-14T14:29:46.758Z,50.34
2023-10-14T14:30:53.002Z,50.83
2023-10-14T14:31:59.305Z,51.85
2023-10-14T14:33:05.558Z,50.79
2023-10-14T14:34:11.735Z,51.33
2023-10-14T14:35:17.974Z,51.49
2023-10-14T14:36:24.227Z,51.12
2023-10-14T14:37:30.500Z,51.17
2023-10-14T14:38:36.597Z,51.46
2023-10-14T14:39:42.932Z,51.22
2023-10-14T14:40:49.140Z,51.41
2023-10-14T14:41:55.397Z,51.44
2023-10-14T14:43:01.669Z,51.65
2023-10-14T14:44:07.872Z,51.69
2023-10-14T14:45:14.122Z,51.43
2023-10-14T14:46:20.488Z,51.97
2023-10-14T14:48:32.852Z,52.04
2023-10-14T14:49:39.014Z,51.59
2023-10-14T14:50:45.287Z,52.27
2023-10-14T14:51:51.530Z,50.82
2023-10-14T14:52:57.790Z,50.51
2023-10-14T14:54:04.034Z,49.08
2023-10-14T14:55:10.295Z,52.91
2023-10-14T14:56:16.520Z,50.06
2023-10-14T14:57:22.748Z,52.72
2023-10-14T14:58:28.926Z,52.41
2023-10-14T14:59:35.225Z,52.11
2023-10-14T15:00:41.647Z,51.25
2023-10-14T15:01:47.732Z,51.83
2023-10-14T15:02:53.993Z,52.9
2023-10-14T15:04:00.329Z,52.49
2023-10-14T15:05:06.432Z,52.48
2023-10-14T15:06:12.626Z,52.29
2023-10-14T15:07:18.970Z,52.37
2023-10-14T15:08:25.146Z,52.83
2023-10-14T15:09:31.380Z,52.79
2023-10-14T15:10:37.637Z,53.12
2023-10-14T15:11:43.826Z,53.31
2023-10-14T15:12:50.077Z,52.94
2023-10-14T15:13:56.309Z,53.31
2023-10-14T15:15:02.632Z,53.18
2023-10-14T15:16:08.859Z,53.2
2023-10-14T15:17:15.213Z,53.42
2023-10-14T15:18:21.646Z,53.42
2023-10-14T15:19:27.538Z,53.41
2023-10-14T15:20:33.817Z,53.41
2023-10-14T15:21:39.969Z,53.61
2023-10-14T15:22:46.266Z,54.16
2023-10-14T15:23:52.442Z,54.05
2023-10-14T15:24:58.698Z,54.31
2023-10-14T15:26:04.972Z,53.83
2023-10-14T15:27:11.173Z,53.81
2023-10-14T15:28:17.459Z,53.8
2023-10-14T15:29:23.807Z,53.96
2023-10-14T15:30:29.897Z,54.11
2023-10-14T15:31:38.372Z,54.07
2023-10-14T15:32:42.467Z,54.11
2023-10-14T15:33:48.637Z,53.92
2023-10-14T15:34:54.840Z,53.84
2023-10-14T15:36:01.063Z,54.01
2023-10-14T15:37:07.354Z,53.93
2023-10-14T15:38:13.477Z,54.07
2023-10-14T15:39:19.784Z,54.14
2023-10-14T15:40:26.173Z,54.13
2023-10-14T15:41:32.293Z,54.35
2023-10-14T15:42:38.485Z,54.74
2023-10-14T15:43:44.806Z,54.54
2023-10-14T15:44:51.001Z,54.39
2023-10-14T15:45:57.238Z,54.66
2023-10-14T15:47:03.570Z,54.48
2023-10-14T15:48:09.749Z,54.46
2023-10-14T15:49:17.901Z,54.59
2023-10-14T15:50:22.499Z,54.54
2023-10-14T15:51:28.438Z,55.08
2023-10-14T15:52:34.659Z,54.91
2023-10-14T15:53:40.875Z,54.85
2023-10-14T15:54:47.162Z,55
2023-10-14T15:55:53.438Z,54.94
2023-10-14T15:56:59.632Z,54.95
2023-10-14T15:58:05.789Z,55.1
2023-10-14T15:59:32.606Z,55.31
2023-10-14T16:02:51.363Z,56.44
2023-10-14T16:03:57.582Z,57.71
2023-10-14T16:05:03.788Z,57.3
2023-10-14T16:06:09.961Z,54.86
2023-10-14T16:07:16.289Z,57.88
2023-10-14T16:08:22.522Z,56.33
2023-10-14T16:10:35.049Z,53.61
2023-10-14T16:12:22.260Z,54.79
2023-10-14T16:13:28.574Z,55.19
2023-10-14T16:14:55.383Z,54.71
2023-10-14T16:16:42.802Z,56.44
2023-10-14T16:17:49.041Z,57.34
2023-10-14T16:19:15.894Z,56.47
2023-10-14T16:20:42.634Z,56.12
2023-10-14T16:22:09.576Z,56.07
2023-10-14T16:23:36.270Z,56.11
2023-10-14T16:25:03.105Z,56.53
2023-10-14T16:26:09.251Z,55.98
2023-10-14T16:27:15.510Z,56.16
2023-10-14T16:28:21.801Z,56.49
2023-10-14T16:29:28.165Z,56.75
2023-10-14T16:30:34.231Z,55.7
2023-10-14T16:31:40.519Z,56.78
2023-10-14T16:32:46.830Z,56.28
2023-10-14T16:33:52.916Z,56.07
2023-10-14T16:34:59.274Z,56.05
2023-10-14T16:37:11.718Z,56.24
2023-10-14T16:38:17.861Z,56.09
2023-10-14T16:39:24.394Z,56.31
2023-10-14T16:40:30.409Z,56.3
2023-10-14T16:41:36.577Z,56.37
2023-10-14T16:42:42.811Z,56.49
2023-10-14T16:43:49.117Z,56.45
2023-10-14T16:44:55.338Z,56.43
2023-10-14T16:46:01.647Z,56.25
2023-10-14T16:47:07.857Z,56.48
2023-10-14T16:48:14.050Z,56.44
2023-10-14T16:49:20.457Z,56.66
2023-10-14T16:50:26.532Z,56.79
2023-10-14T16:51:32.700Z,56.71
2023-10-14T16:52:39.016Z,56.58
2023-10-14T16:53:45.248Z,56.78
2023-10-14T16:54:51.476Z,56.86
2023-10-14T16:55:57.728Z,56.78
2023-10-14T16:57:03.956Z,56.85
2023-10-14T16:58:11.350Z,56.89
2023-10-14T16:59:16.426Z,56.91
2023-10-14T17:00:22.721Z,56.86
2023-10-14T17:01:29.002Z,56.96
2023-10-14T17:02:35.142Z,57.12
2023-10-14T17:03:41.378Z,57.29
2023-10-14T17:04:47.718Z,57.2
2023-10-14T17:05:53.859Z,57.15
2023-10-14T17:07:00.107Z,57.25
2023-10-14T17:08:06.359Z,57.35
2023-10-14T17:09:12.652Z,57.15
2023-10-14T17:10:18.833Z,57.23
2023-10-14T17:11:25.036Z,57.51
2023-10-14T17:12:31.286Z,57.5
2023-10-14T17:13:37.484Z,57.48
2023-10-14T17:14:43.774Z,57.43
2023-10-14T17:15:50.001Z,57.59
2023-10-14T17:18:02.648Z,57.73
2023-10-14T17:19:08.772Z,57.6
2023-10-14T17:20:14.940Z,57.65
2023-10-14T17:21:21.212Z,57.85
2023-10-14T17:22:27.487Z,57.78
2023-10-14T17:23:33.675Z,57.77
2023-10-14T17:24:39.821Z,57.85
2023-10-14T17:25:46.224Z,57.8
2023-10-14T17:26:52.371Z,57.9
2023-10-14T17:27:58.617Z,58
2023-10-14T17:29:04.882Z,57.99
2023-10-14T17:30:11.125Z,57.77
2023-10-14T17:31:17.432Z,58
2023-10-14T17:32:23.575Z,58.02
2023-10-14T17:33:29.816Z,57.81
2023-10-14T17:34:35.965Z,57.69
2023-10-14T17:35:42.241Z,57.94
2023-10-14T17:36:48.454Z,57.95
2023-10-14T17:37:54.760Z,57.92
2023-10-14T17:39:00.988Z,58
2023-10-14T17:40:07.261Z,57.85
2023-10-14T17:41:13.488Z,57.83
2023-10-14T17:42:19.693Z,57.97
2023-10-14T17:43:25.964Z,58.02
2023-10-14T17:44:32.183Z,58.09
2023-10-14T17:45:38.499Z,58.08
2023-10-14T17:46:44.693Z,58.11
2023-10-14T17:47:51.110Z,58.08
2023-10-14T17:50:03.364Z,57.87
2023-10-14T17:51:09.612Z,58
2023-10-14T17:52:15.896Z,58.18
2023-10-14T17:53:21.992Z,57.95
2023-10-14T17:54:28.266Z,58.04
2023-10-14T17:55:34.593Z,58.03
2023-10-14T17:56:40.801Z,58.04
2023-10-14T17:57:47.020Z,58.16
2023-10-14T17:58:53.270Z,58.18
2023-10-14T17:59:59.533Z,58.17
2023-10-14T18:01:05.870Z,58.13
2023-10-14T18:02:12.355Z,58.01
2023-10-14T18:03:18.300Z,58.18
2023-10-14T18:04:24.487Z,58.14
2023-10-14T18:05:30.720Z,58.24
2023-10-14T18:06:36.970Z,58.31
2023-10-14T18:07:43.199Z,58.32
2023-10-14T18:08:49.450Z,58.26
2023-10-14T18:09:55.659Z,58.33
2023-10-14T18:11:01.922Z,58.2
2023-10-14T18:13:14.399Z,58.45
2023-10-14T18:14:20.615Z,58.45
2023-10-14T18:15:26.783Z,58.44
2023-10-14T18:16:33.114Z,58.55
2023-10-14T18:17:39.459Z,58.47
2023-10-14T18:18:45.673Z,58.52
2023-10-14T18:19:51.882Z,58.39
2023-10-14T18:20:58.041Z,58.33
2023-10-14T18:22:04.270Z,58.42
2023-10-14T18:23:10.563Z,58.54
2023-10-14T18:24:16.776Z,58.53
2023-10-14T18:25:22.951Z,58.55
2023-10-14T18:26:29.163Z,58.63
2023-10-14T18:27:35.486Z,58.71
2023-10-14T18:28:41.748Z,58.62
2023-10-14T18:29:47.970Z,58.49
2023-10-14T18:30:54.231Z,58.5
2023-10-14T18:32:00.428Z,58.45
2023-10-14T18:33:06.683Z,58.46
2023-10-14T18:34:12.969Z,58.55
2023-10-14T18:35:19.188Z,58.74
2023-10-14T18:36:25.301Z,58.57
2023-10-14T18:37:31.641Z,58.65
2023-10-14T18:38:37.872Z,58.72
2023-10-14T18:39:44.140Z,58.53
2023-10-14T18:40:50.369Z,58.59
2023-10-14T18:41:56.586Z,58.62
2023-10-14T18:44:08.982Z,58.59
2023-10-14T18:45:15.290Z,58.51
2023-10-14T18:46:21.601Z,58.57
2023-10-14T18:47:27.864Z,58.68
2023-10-14T18:48:33.980Z,58.6
2023-10-14T18:49:40.266Z,58.66
2023-10-14T18:50:46.476Z,58.72
2023-10-14T18:51:52.699Z,58.63
2023-10-14T18:52:58.949Z,58.77
2023-10-14T18:54:05.190Z,58.69
2023-10-14T18:55:11.352Z,58.85
2023-10-14T18:56:21.828Z,58.89
2023-10-14T18:57:23.899Z,58.75
2023-10-14T18:58:30.154Z,58.7
2023-10-14T18:59:36.371Z,58.83
2023-10-14T19:00:42.623Z,58.69
2023-10-14T19:01:48.972Z,58.85
2023-10-14T19:02:55.183Z,58.9
2023-10-14T19:04:01.878Z,59.2
2023-10-14T19:05:07.702Z,58.95
2023-10-14T19:06:13.719Z,58.96
2023-10-14T19:07:20.031Z,59.08
2023-10-14T19:08:26.282Z,59.04
2023-10-14T19:09:32.559Z,59.25
2023-10-14T19:10:38.803Z,59.28
2023-10-14T19:12:51.257Z,59.42
2023-10-14T19:13:57.514Z,59.42
2023-10-14T19:15:03.656Z,59.13
2023-10-14T19:17:16.244Z,59.54
2023-10-14T19:18:22.456Z,59.3
2023-10-14T19:19:28.722Z,59.23
2023-10-14T19:20:35.051Z,59.03
2023-10-14T19:21:41.160Z,59.22
2023-10-14T19:22:47.426Z,59.66
2023-10-14T19:23:53.626Z,59.5
2023-10-14T19:24:59.874Z,59.22
2023-10-14T19:26:06.126Z,59.05
2023-10-14T19:28:18.614Z,59.36
2023-10-14T19:29:45.342Z,59.23
2023-10-14T19:31:12.225Z,59.16
2023-10-14T19:32:39.017Z,59.25
2023-10-14T19:34:05.753Z,59.06
2023-10-14T19:35:32.620Z,59.23
2023-10-14T19:36:59.414Z,59.21
2023-10-14T19:38:26.239Z,59.01
2023-10-14T19:39:53.044Z,59.34
2023-10-14T19:41:19.875Z,59.19
2023-10-14T19:42:46.664Z,59.25
2023-10-14T19:44:13.435Z,59.2
2023-10-14T19:45:19.684Z,59.07
2023-10-14T19:46:26.024Z,59.12
2023-10-14T19:47:32.264Z,59.82
2023-10-14T19:48:40.125Z,59.34
2023-10-14T19:49:51.625Z,59.26